Aeroporto :
LOGIN :

Iscrizione | Disclaimer

   EN    FR    IT 

 










Sommario :    VFR   VFR Marginale   IFR   IFR Intensivo   IFR Molto Intensivo
Visibilità : 
Base nubi : 
>= 8 km
>= 3000ft
5 / 8 km
1000 / 3000 ft
1500m / 5 km
500 / 1000 ft
800 / 1500m
200 / 500 ft
< 800m
< 200 ft
Simboli :   Temporali  Nebbia  Neve Forte  Precipitazioni Forti  Vento > 20 kt
SIGMETs :   Varie  Temporali  Ghiacco  Turbolenza  Onda orograficha  Ceneri Vulcaniche






- Altitudine del aeroporto : 2026 ft
- Codice IATA : TOJ


LETO - Madrid Torrejon

ULTIMO METAR :
  • 121000Z 34003KT 280V020 CAVOK 08/03 Q1017 NOSIG

METARs OBSOLETI :
  • 120900Z 00000KT CAVOK 06/03 Q1017 NOSIG
  • 120800Z VRB02KT CAVOK 04/02 Q1017 NOSIG

TAF TAF LETO
Valido dal 12 a 06 ore il 13 a 06 ore UTC


120500Z 1206/1306 02008KT 9999 FEW040 TX14/1215Z TN03/1206Z
TEMPO 1206/1208 VRB05KT
BECMG 1208/1209 31010KT
BECMG 1216/1217 24010KT
TEMPO 1218/1306 4000 RA BKN015
PROB40
TEMPO 1302/1306 24015G28KT



MetMap, La meteo Aeronautica in un colpo d'occhio ! - Copyright ORBIFLY Dicembre 2007 - Disclaimer

ORBIFLY MET'MAP TEAM :

Programmazione e sviluppo : Alexandra Zaïnal
Concezione e sviluppo : Baudouin d'Aumeries
Co-Programmazione e sviluppo : Marc-Olivier Méhu
Supporto tecnico e logistico : Manuel Goepfert
Aiuto per la traduzione : Arnaldo La Scala

Contatto : metmap@orbifly.com




FONTI E CREDITI :

   NOAA